Time;durP1;ratioP1;P1;durP2;ratioP2;P2;SDS_P1;SDS_P2;PMS_P1;PMS_P2;Temp;Humidity;BMP_temperature;BMP_pressure;BME280_temperature;BME280_humidity;BME280_pressure;Samples;Min_cycle;Max_cycle;Signal;HPM_P1;HPM_P2
2024/01/28 00:01:31;;;;;;;14.63;9.33;;;3.80;1.00;;;;;;5076212;28;20505;-69
2024/01/28 00:03:57;;;;;;;23.47;11.10;;;3.80;1.00;;;;;;5057417;28;20416;-72
2024/01/28 00:06:23;;;;;;;20.30;10.30;;;3.80;1.00;;;;;;5075752;28;20198;-75
2024/01/28 00:08:48;;;;;;;19.83;11.83;;;3.80;1.00;;;;;;5075647;28;20173;-69
2024/01/28 00:11:14;;;;;;;23.47;11.00;;;3.80;1.00;;;;;;5075900;28;20166;-69
2024/01/28 00:13:40;;;;;;;27.37;9.93;;;3.80;1.00;;;;;;5074914;28;20167;-69
2024/01/28 00:16:06;;;;;;;17.90;11.80;;;3.80;1.00;;;;;;5075802;28;20261;-76
2024/01/28 00:18:31;;;;;;;26.43;11.00;;;3.80;1.00;;;;;;5075669;28;20658;-76
2024/01/28 00:20:57;;;;;;;14.03;10.40;;;3.80;1.00;;;;;;5075787;28;20184;-69
2024/01/28 00:23:23;;;;;;;29.47;10.50;;;3.70;1.00;;;;;;5074788;28;20164;-69
2024/01/28 00:25:48;;;;;;;16.97;11.70;;;3.70;1.00;;;;;;5075384;28;20196;-75
2024/01/28 00:28:14;;;;;;;33.30;11.30;;;3.70;1.00;;;;;;5057627;28;20168;-74
2024/01/28 00:30:40;;;;;;;17.60;9.80;;;3.70;1.00;;;;;;5075436;28;20168;-75
2024/01/28 00:33:06;;;;;;;16.47;10.77;;;3.70;1.00;;;;;;5074696;28;20417;-75
2024/01/28 00:35:34;;;;;;;15.03;11.50;;;3.70;1.00;;;;;;5075380;28;20498;-76
2024/01/28 00:37:59;;;;;;;16.13;10.10;;;3.70;1.00;;;;;;5057415;28;20646;-70
2024/01/28 00:40:25;;;;;;;16.73;10.00;;;3.70;1.00;;;;;;5075374;28;20405;-75
2024/01/28 00:42:51;;;;;;;22.43;10.37;;;3.60;1.00;;;;;;5074273;28;20526;-69
2024/01/28 00:45:16;;;;;;;17.83;10.20;;;3.60;1.00;;;;;;5075156;28;20445;-69
2024/01/28 00:47:44;;;;;;;27.10;10.40;;;3.60;1.00;;;;;;5057509;28;20714;-75
2024/01/28 00:50:10;;;;;;;15.70;11.10;;;3.50;1.00;;;;;;5075186;28;20160;-68
2024/01/28 00:52:35;;;;;;;16.50;9.97;;;3.50;1.00;;;;;;5075139;28;20410;-76
2024/01/28 00:55:01;;;;;;;21.33;12.07;;;3.40;1.00;;;;;;5074071;28;21041;-75
2024/01/28 00:57:27;;;;;;;21.47;11.90;;;3.40;1.00;;;;;;5057097;28;20179;-69
2024/01/28 00:59:52;;;;;;;12.77;10.50;;;3.30;1.00;;;;;;5075272;28;20396;-69
2024/01/28 01:02:18;;;;;;;20.73;11.10;;;3.30;1.00;;;;;;5056380;28;20184;-76
2024/01/28 01:04:44;;;;;;;19.20;12.00;;;3.40;1.00;;;;;;5073863;28;20198;-70
2024/01/28 01:07:09;;;;;;;18.83;12.00;;;3.30;1.00;;;;;;5074730;28;20192;-76
2024/01/28 01:09:38;;;;;;;15.07;9.80;;;3.30;1.00;;;;;;5074831;28;20180;-76
2024/01/28 01:12:04;;;;;;;18.30;11.40;;;3.30;1.00;;;;;;5074787;28;20164;-76
2024/01/28 01:14:35;;;;;;;31.33;11.13;;;3.30;1.00;;;;;;5073685;28;20422;-69
2024/01/28 01:17:02;;;;;;;21.67;9.70;;;3.20;1.00;;;;;;5074496;28;20456;-76
2024/01/28 01:19:27;;;;;;;16.27;9.80;;;3.20;1.00;;;;;;5074599;28;20496;-74
2024/01/28 01:21:53;;;;;;;15.73;12.03;;;3.20;1.00;;;;;;5074668;28;20505;-76
2024/01/28 01:24:19;;;;;;;21.50;10.27;;;3.20;1.00;;;;;;5073536;28;20187;-75
2024/01/28 01:26:44;;;;;;;20.53;9.83;;;3.20;1.00;;;;;;5074337;28;20190;-75
2024/01/28 01:29:10;;;;;;;16.83;10.57;;;3.10;1.00;;;;;;5074292;28;20179;-75
2024/01/28 01:31:36;;;;;;;13.87;11.00;;;3.10;1.00;;;;;;5056753;28;20199;-69
2024/01/28 01:34:02;;;;;;;27.23;11.40;;;3.10;1.00;;;;;;5055460;28;20166;-75
2024/01/28 01:36:28;;;;;;;14.77;10.43;;;3.10;1.00;;;;;;5056349;28;20173;-76
2024/01/28 01:38:54;;;;;;;16.60;10.37;;;3.10;1.00;;;;;;5074205;28;20483;-75
2024/01/28 01:41:19;;;;;;;21.03;10.63;;;3.10;1.00;;;;;;5056219;28;20175;-68
2024/01/28 01:43:45;;;;;;;22.23;11.43;;;3.10;1.00;;;;;;5073268;28;20583;-69
2024/01/28 01:46:12;;;;;;;12.97;9.57;;;3.10;1.00;;;;;;5073993;28;20203;-76
2024/01/28 01:48:38;;;;;;;24.10;12.50;;;3.00;1.00;;;;;;5074052;28;20177;-69
2024/01/28 01:51:06;;;;;;;23.03;11.10;;;3.00;1.00;;;;;;5073888;28;20400;-68
2024/01/28 01:53:33;;;;;;;16.10;10.57;;;3.00;1.00;;;;;;5072944;28;20170;-68
2024/01/28 01:55:59;;;;;;;27.40;11.87;;;2.90;1.00;;;;;;5073849;28;20421;-68
2024/01/28 01:58:25;;;;;;;18.70;11.47;;;2.90;1.00;;;;;;5073910;28;20405;-68
2024/01/28 02:00:51;;;;;;;16.53;10.87;;;2.80;1.00;;;;;;5073828;28;20412;-76
2024/01/28 02:03:16;;;;;;;15.27;10.97;;;2.80;1.00;;;;;;5072847;28;20623;-73
2024/01/28 02:05:42;;;;;;;16.27;10.50;;;2.80;1.00;;;;;;5055579;28;20519;-75
2024/01/28 02:08:08;;;;;;;14.40;10.07;;;2.80;1.00;;;;;;5056003;28;20174;-70
2024/01/28 02:10:34;;;;;;;15.33;10.40;;;2.70;1.00;;;;;;5073673;28;20216;-75
2024/01/28 02:12:59;;;;;;;24.87;13.20;;;2.70;1.00;;;;;;5072705;28;20170;-68
2024/01/28 02:15:25;;;;;;;18.77;11.80;;;2.70;1.00;;;;;;5073423;28;20183;-76
2024/01/28 02:17:52;;;;;;;26.10;13.30;;;2.70;1.00;;;;;;5073499;28;20181;-69
2024/01/28 02:20:18;;;;;;;24.00;12.73;;;2.70;1.00;;;;;;5073546;28;20164;-76
2024/01/28 02:22:44;;;;;;;20.57;12.47;;;2.70;1.00;;;;;;5073035;28;20466;-69
2024/01/28 02:25:09;;;;;;;22.60;13.20;;;2.70;1.00;;;;;;5072554;28;20281;-76
2024/01/28 02:27:36;;;;;;;17.00;11.90;;;2.70;1.00;;;;;;5073323;28;20404;-68
2024/01/28 02:30:02;;;;;;;19.20;12.27;;;2.70;1.00;;;;;;5073485;28;20166;-69
2024/01/28 02:32:28;;;;;;;19.00;13.40;;;2.60;1.00;;;;;;5073403;28;20912;-76
2024/01/28 02:34:53;;;;;;;21.23;12.00;;;2.60;1.00;;;;;;5072410;28;20425;-76
2024/01/28 02:37:19;;;;;;;20.20;13.07;;;2.60;1.00;;;;;;5073278;28;20245;-69
2024/01/28 02:39:44;;;;;;;29.97;15.50;;;2.70;1.00;;;;;;5073260;28;20700;-76
2024/01/28 02:42:10;;;;;;;26.10;14.53;;;2.70;1.00;;;;;;5073318;28;20650;-76
2024/01/28 02:44:36;;;;;;;20.03;14.10;;;2.70;1.00;;;;;;5072287;28;20217;-76
2024/01/28 02:47:03;;;;;;;19.20;13.77;;;2.60;1.00;;;;;;5073116;28;20200;-69
2024/01/28 02:49:29;;;;;;;18.67;13.93;;;2.70;1.00;;;;;;5073136;28;20409;-70
2024/01/28 02:51:54;;;;;;;17.43;14.10;;;2.70;1.00;;;;;;5073094;28;20249;-76
2024/01/28 02:54:22;;;;;;;27.17;14.50;;;2.70;1.00;;;;;;5054205;28;20676;-76
2024/01/28 02:56:49;;;;;;;21.57;14.10;;;2.70;1.00;;;;;;5055217;28;20174;-76
2024/01/28 02:59:14;;;;;;;30.57;13.67;;;2.70;1.00;;;;;;5055197;28;20420;-69
2024/01/28 03:01:47;;;;;;;38.20;16.30;;;2.70;1.00;;;;;;5073080;28;20405;-75
2024/01/28 03:04:13;;;;;;;31.97;15.43;;;2.70;1.00;;;;;;5072090;28;20571;-75
2024/01/28 03:06:39;;;;;;;21.83;14.03;;;2.70;1.00;;;;;;5072927;28;20821;-76
2024/01/28 03:09:05;;;;;;;20.13;16.13;;;2.70;1.00;;;;;;5055364;28;20413;-68
2024/01/28 03:11:31;;;;;;;20.60;15.23;;;2.60;1.00;;;;;;5073113;28;20458;-69
2024/01/28 03:13:57;;;;;;;29.20;15.60;;;2.60;1.00;;;;;;5071893;28;20301;-76
2024/01/28 03:16:23;;;;;;;20.50;14.07;;;2.60;1.00;;;;;;5072939;28;20452;-69
2024/01/28 03:18:48;;;;;;;25.20;15.53;;;2.60;1.00;;;;;;5055227;28;20448;-76
2024/01/28 03:21:14;;;;;;;19.33;14.80;;;2.60;1.00;;;;;;5054938;28;20182;-76
2024/01/28 03:23:40;;;;;;;18.83;14.27;;;2.60;1.00;;;;;;5053963;28;20190;-75
2024/01/28 03:26:05;;;;;;;19.13;15.23;;;2.60;1.00;;;;;;5076099;28;20281;-68
2024/01/28 03:28:31;;;;;;;22.60;16.90;;;2.60;1.00;;;;;;5076775;28;20253;-70
2024/01/28 03:30:57;;;;;;;25.00;19.97;;;2.70;1.00;;;;;;5076753;28;20274;-69
2024/01/28 03:33:23;;;;;;;26.67;17.40;;;2.60;1.00;;;;;;5058049;28;20412;-76
2024/01/28 03:35:48;;;;;;;20.73;15.47;;;2.60;1.00;;;;;;5076542;28;20206;-76
2024/01/28 03:38:14;;;;;;;28.13;17.30;;;2.60;1.00;;;;;;5076463;28;20170;-76
2024/01/28 03:40:40;;;;;;;28.33;15.87;;;2.60;1.00;;;;;;5058500;28;20220;-76
2024/01/28 03:43:06;;;;;;;22.90;14.87;;;2.60;1.00;;;;;;5075650;28;20173;-68
2024/01/28 03:45:31;;;;;;;26.43;16.67;;;2.50;1.00;;;;;;5076249;28;20203;-68
2024/01/28 03:47:57;;;;;;;22.43;17.17;;;2.50;1.00;;;;;;5076316;28;20587;-75
2024/01/28 03:50:24;;;;;;;27.33;15.70;;;2.50;1.00;;;;;;5076181;28;20174;-69
2024/01/28 03:52:50;;;;;;;32.30;17.20;;;2.50;1.00;;;;;;5075395;28;20162;-76
2024/01/28 03:55:15;;;;;;;25.53;16.77;;;2.60;1.00;;;;;;5076115;28;20426;-76
2024/01/28 03:57:43;;;;;;;20.87;15.07;;;2.60;1.00;;;;;;5058288;28;20593;-76
2024/01/28 04:00:11;;;;;;;38.73;18.20;;;2.50;1.00;;;;;;5076072;28;20257;-69
2024/01/28 04:02:38;;;;;;;25.10;15.47;;;2.60;1.00;;;;;;5075959;28;20409;-76
2024/01/28 04:05:04;;;;;;;29.63;17.17;;;2.50;1.00;;;;;;5075016;28;20448;-76
2024/01/28 04:07:30;;;;;;;23.97;16.87;;;2.50;1.00;;;;;;5075904;28;20451;-75
2024/01/28 04:09:55;;;;;;;24.73;16.60;;;2.50;1.00;;;;;;5075996;28;20397;-76
2024/01/28 04:12:22;;;;;;;27.70;15.87;;;2.50;1.00;;;;;;5057919;28;20179;-76
2024/01/28 04:14:48;;;;;;;25.60;17.87;;;2.50;1.00;;;;;;5074893;28;20213;-68
2024/01/28 04:17:14;;;;;;;30.37;17.43;;;2.50;1.00;;;;;;5058001;28;20769;-69
2024/01/28 04:19:39;;;;;;;32.17;17.70;;;2.50;1.00;;;;;;5057814;28;20171;-68
2024/01/28 04:22:08;;;;;;;30.30;17.33;;;2.40;1.00;;;;;;5075826;28;20257;-76
2024/01/28 04:24:34;;;;;;;26.90;16.60;;;2.40;1.00;;;;;;5056990;28;20554;-76
2024/01/28 04:26:59;;;;;;;32.73;18.00;;;2.40;1.00;;;;;;5057617;28;20463;-76
2024/01/28 04:29:25;;;;;;;24.23;16.30;;;2.40;1.00;;;;;;5057968;28;20262;-69
2024/01/28 04:31:51;;;;;;;32.47;18.13;;;2.40;1.00;;;;;;5075531;28;20163;-69
2024/01/28 04:34:16;;;;;;;31.90;16.63;;;2.40;1.00;;;;;;5056598;28;20194;-76
2024/01/28 04:36:42;;;;;;;20.37;16.77;;;2.40;1.00;;;;;;5074069;28;20455;-77
2024/01/28 04:39:09;;;;;;;31.97;18.20;;;2.40;1.00;;;;;;5057495;28;20182;-75
2024/01/28 04:41:34;;;;;;;22.50;16.70;;;2.30;1.00;;;;;;5075416;28;20171;-76
2024/01/28 04:44:01;;;;;;;24.87;17.23;;;2.30;1.00;;;;;;5074346;28;20423;-76
2024/01/28 04:46:26;;;;;;;20.67;16.10;;;2.30;1.00;;;;;;5075096;28;20601;-76
2024/01/28 04:48:52;;;;;;;29.03;15.07;;;2.20;1.00;;;;;;5075198;28;20408;-68
2024/01/28 04:51:17;;;;;;;21.80;15.37;;;2.30;1.00;;;;;;5075272;28;20504;-76
2024/01/28 04:53:43;;;;;;;22.60;15.93;;;2.30;1.00;;;;;;5074288;28;20174;-76
2024/01/28 04:56:11;;;;;;;24.20;17.20;;;2.30;1.00;;;;;;5057390;28;20199;-76
2024/01/28 04:58:37;;;;;;;27.20;15.00;;;2.30;1.00;;;;;;5074974;28;20162;-74
2024/01/28 05:01:03;;;;;;;25.90;14.53;;;2.40;1.00;;;;;;5074989;28;20404;-76
2024/01/28 05:03:29;;;;;;;24.53;17.90;;;2.30;1.00;;;;;;5074104;28;20397;-68
2024/01/28 05:05:54;;;;;;;26.53;16.43;;;2.40;1.00;;;;;;5074688;28;20597;-76
2024/01/28 05:08:20;;;;;;;34.87;17.77;;;2.40;1.00;;;;;;5074947;28;20188;-76
2024/01/28 05:10:46;;;;;;;22.13;16.10;;;2.30;1.00;;;;;;5074821;28;20627;-76
2024/01/28 05:13:11;;;;;;;24.17;15.50;;;2.30;1.00;;;;;;5056239;28;20556;-68
2024/01/28 05:15:37;;;;;;;25.83;15.93;;;2.30;1.00;;;;;;5074586;28;20200;-68
2024/01/28 05:18:03;;;;;;;24.93;16.30;;;2.30;1.00;;;;;;5074651;28;20170;-76
2024/01/28 05:20:28;;;;;;;23.20;15.10;;;2.30;1.00;;;;;;5074570;28;20166;-68
2024/01/28 05:22:54;;;;;;;24.67;16.03;;;2.30;1.00;;;;;;5073651;28;20666;-69
2024/01/28 05:25:20;;;;;;;21.50;14.70;;;2.30;1.00;;;;;;5074345;28;20202;-68
2024/01/28 05:27:46;;;;;;;21.70;15.17;;;2.30;1.00;;;;;;5074526;28;20645;-71
2024/01/28 05:30:11;;;;;;;25.83;15.43;;;2.30;1.00;;;;;;5074378;28;20163;-76
2024/01/28 05:32:37;;;;;;;23.60;15.07;;;2.30;1.00;;;;;;5074326;28;20443;-77
2024/01/28 05:35:04;;;;;;;26.63;16.30;;;2.20;1.00;;;;;;5073250;28;20213;-69
2024/01/28 05:37:30;;;;;;;20.60;13.97;;;2.30;1.00;;;;;;5074329;28;20170;-76
2024/01/28 05:39:59;;;;;;;17.73;13.97;;;2.20;1.00;;;;;;5074273;28;20857;-76
2024/01/28 05:42:25;;;;;;;19.30;14.43;;;2.20;1.00;;;;;;5074201;28;20411;-76
2024/01/28 05:44:50;;;;;;;19.97;13.70;;;2.20;1.00;;;;;;5055163;28;20429;-69
2024/01/28 05:47:16;;;;;;;16.33;12.87;;;2.10;1.00;;;;;;5073648;28;20195;-76
2024/01/28 05:49:41;;;;;;;25.13;14.97;;;2.10;1.00;;;;;;5073732;28;20166;-69
2024/01/28 05:52:07;;;;;;;18.83;13.80;;;2.10;1.00;;;;;;5074064;28;20171;-77
2024/01/28 05:54:33;;;;;;;28.87;15.43;;;2.10;1.00;;;;;;5072962;28;20194;-77
2024/01/28 05:57:00;;;;;;;18.10;12.87;;;2.10;1.00;;;;;;5073944;28;20235;-76
2024/01/28 05:59:25;;;;;;;19.47;13.33;;;2.00;1.00;;;;;;5073750;28;20442;-76
2024/01/28 06:01:51;;;;;;;19.13;13.63;;;2.00;1.00;;;;;;5073862;28;20409;-70
2024/01/28 06:04:17;;;;;;;24.30;14.37;;;2.00;1.00;;;;;;5072950;28;20650;-68
2024/01/28 06:06:42;;;;;;;14.80;13.30;;;2.00;1.00;;;;;;5055779;28;20210;-68
2024/01/28 06:09:09;;;;;;;21.60;14.67;;;2.00;1.00;;;;;;5056010;28;20173;-76
2024/01/28 06:11:36;;;;;;;19.27;14.20;;;2.00;1.00;;;;;;5073626;28;20166;-77
2024/01/28 06:14:03;;;;;;;23.60;15.00;;;1.90;1.00;;;;;;5054696;28;20408;-68
2024/01/28 06:16:29;;;;;;;22.10;13.80;;;1.90;1.00;;;;;;5073614;28;20469;-68
2024/01/28 06:18:56;;;;;;;23.40;14.83;;;2.00;1.00;;;;;;5073563;28;20450;-76
2024/01/28 06:21:22;;;;;;;20.50;14.10;;;1.90;1.00;;;;;;5073462;28;20408;-72
2024/01/28 06:23:47;;;;;;;18.83;13.73;;;1.90;1.00;;;;;;5054641;28;20792;-76
2024/01/28 06:26:13;;;;;;;18.93;13.27;;;2.00;1.00;;;;;;5073419;28;20300;-76
2024/01/28 06:28:38;;;;;;;26.00;14.20;;;2.00;1.00;;;;;;5073411;28;20162;-76
2024/01/28 06:31:04;;;;;;;23.33;15.43;;;1.90;1.00;;;;;;5055511;28;20174;-76
2024/01/28 06:33:30;;;;;;;24.33;14.43;;;1.90;1.00;;;;;;5072407;28;20209;-76
2024/01/28 06:35:56;;;;;;;28.57;13.70;;;1.90;1.00;;;;;;5073261;28;20273;-76
2024/01/28 06:38:21;;;;;;;22.23;13.70;;;2.00;1.00;;;;;;5073099;28;20204;-68
2024/01/28 06:40:47;;;;;;;30.63;15.03;;;2.00;1.00;;;;;;5055280;28;20384;-77
2024/01/28 06:43:13;;;;;;;29.27;14.40;;;2.00;1.00;;;;;;5071231;28;20414;-73
2024/01/28 06:45:38;;;;;;;28.83;15.93;;;2.10;1.00;;;;;;5073017;28;20590;-75
2024/01/28 06:48:04;;;;;;;22.17;15.30;;;2.20;1.00;;;;;;5073243;28;20179;-77
2024/01/28 06:50:31;;;;;;;26.90;15.20;;;2.20;1.00;;;;;;5073055;28;20173;-77
2024/01/28 06:53:01;;;;;;;20.13;14.10;;;2.10;1.00;;;;;;5054119;28;20755;-73
2024/01/28 06:55:26;;;;;;;21.30;13.87;;;2.10;1.00;;;;;;5073114;28;20450;-77
2024/01/28 06:57:52;;;;;;;29.65;13.25;;;2.10;1.00;;;;;;5072045;28;20960;-68
2024/01/28 07:00:18;;;;;;;24.30;14.80;;;2.10;1.00;;;;;;5075451;28;20234;-77
2024/01/28 07:02:45;;;;;;;24.80;14.97;;;2.10;1.00;;;;;;5059340;28;20186;-68
2024/01/28 07:05:11;;;;;;;18.00;13.77;;;2.10;1.00;;;;;;5076252;28;20192;-69
2024/01/28 07:07:38;;;;;;;22.07;13.50;;;2.00;1.00;;;;;;5077138;28;20420;-76
2024/01/28 07:10:05;;;;;;;31.00;15.60;;;2.00;1.00;;;;;;5076996;28;20550;-77
2024/01/28 07:12:30;;;;;;;22.50;13.13;;;2.00;1.00;;;;;;5077135;28;20400;-76
2024/01/28 07:14:56;;;;;;;26.17;13.63;;;2.00;1.00;;;;;;5076134;28;20417;-77
2024/01/28 07:17:22;;;;;;;29.07;13.47;;;2.00;1.00;;;;;;5077082;28;20522;-68
2024/01/28 07:19:47;;;;;;;18.50;12.50;;;2.00;1.00;;;;;;5076899;28;20170;-69
2024/01/28 07:22:13;;;;;;;20.83;13.47;;;2.00;1.00;;;;;;5059277;28;20181;-68
2024/01/28 07:24:39;;;;;;;28.00;13.33;;;2.00;1.00;;;;;;5075757;28;20594;-76
2024/01/28 07:27:05;;;;;;;27.77;14.83;;;2.00;1.00;;;;;;5076826;28;20189;-77
2024/01/28 07:29:31;;;;;;;30.57;14.13;;;1.90;1.00;;;;;;5076731;28;20162;-77
2024/01/28 07:31:56;;;;;;;23.53;13.23;;;1.90;1.00;;;;;;5058894;28;20405;-68
2024/01/28 07:34:23;;;;;;;28.37;13.37;;;1.90;1.00;;;;;;5075602;28;20186;-68
2024/01/28 07:36:51;;;;;;;28.47;14.20;;;1.90;1.00;;;;;;5076625;28;20180;-77
2024/01/28 07:39:16;;;;;;;22.60;12.77;;;1.90;1.00;;;;;;5076368;28;20418;-76
2024/01/28 07:41:42;;;;;;;25.83;14.77;;;1.80;1.00;;;;;;5076489;28;20487;-68
2024/01/28 07:44:08;;;;;;;28.13;14.33;;;1.90;1.00;;;;;;5075371;28;20232;-68
2024/01/28 07:46:34;;;;;;;16.80;13.10;;;1.90;1.00;;;;;;5076340;28;20205;-69
2024/01/28 07:48:59;;;;;;;20.90;12.73;;;1.90;1.00;;;;;;5076484;28;20187;-77
2024/01/28 07:51:25;;;;;;;28.20;13.90;;;1.90;1.00;;;;;;5058400;28;20166;-77
2024/01/28 07:53:51;;;;;;;28.70;14.20;;;1.90;1.00;;;;;;5057605;28;20185;-69
2024/01/28 07:56:16;;;;;;;24.33;12.87;;;2.00;1.00;;;;;;5076161;28;20249;-69
2024/01/28 07:58:42;;;;;;;18.67;12.93;;;2.00;1.00;;;;;;5076150;28;20166;-68
2024/01/28 08:01:08;;;;;;;20.03;13.53;;;2.00;1.00;;;;;;5075954;28;20201;-69
2024/01/28 08:03:34;;;;;;;15.27;12.90;;;2.00;1.00;;;;;;5075089;28;20240;-69
2024/01/28 08:05:59;;;;;;;15.43;12.20;;;2.00;1.00;;;;;;5075741;28;20458;-77
2024/01/28 08:08:25;;;;;;;19.03;12.50;;;2.00;1.00;;;;;;5075781;28;20165;-68
2024/01/28 08:10:51;;;;;;;19.77;12.60;;;2.00;1.00;;;;;;5075569;28;20155;-77
2024/01/28 08:13:19;;;;;;;22.60;13.80;;;2.00;1.00;;;;;;5074947;28;20162;-77
2024/01/28 08:15:45;;;;;;;23.87;13.90;;;2.00;1.00;;;;;;5075759;28;20452;-68
2024/01/28 08:18:11;;;;;;;25.50;14.10;;;2.10;1.00;;;;;;5057974;28;20443;-77
2024/01/28 08:20:37;;;;;;;23.80;14.73;;;2.10;1.00;;;;;;5075638;28;20404;-77
2024/01/28 08:23:04;;;;;;;24.67;14.90;;;2.10;1.00;;;;;;5074688;28;20162;-75
2024/01/28 08:25:29;;;;;;;23.67;14.27;;;2.20;1.00;;;;;;5075557;28;20448;-68
2024/01/28 08:27:56;;;;;;;33.23;14.07;;;2.30;1.00;;;;;;5075633;28;20521;-69
2024/01/28 08:30:25;;;;;;;21.13;14.47;;;2.30;1.00;;;;;;5075435;28;20638;-68
2024/01/28 08:32:50;;;;;;;25.97;14.70;;;2.30;1.00;;;;;;5074558;28;20457;-76
2024/01/28 08:35:18;;;;;;;20.90;13.03;;;2.30;1.00;;;;;;5057584;28;20437;-70
2024/01/28 08:37:43;;;;;;;28.43;14.67;;;2.30;1.00;;;;;;5075237;28;20409;-77
2024/01/28 08:40:10;;;;;;;24.53;12.87;;;2.30;1.00;;;;;;5075309;28;20401;-68
2024/01/28 08:42:35;;;;;;;22.37;12.23;;;2.40;1.00;;;;;;5075189;28;20855;-69
2024/01/28 08:45:01;;;;;;;24.03;14.23;;;2.40;1.00;;;;;;5074286;28;20530;-77
2024/01/28 08:47:27;;;;;;;33.93;13.70;;;2.40;1.00;;;;;;5075192;28;20627;-68
2024/01/28 08:49:53;;;;;;;26.37;12.33;;;2.50;1.00;;;;;;5075226;28;20159;-78
2024/01/28 08:52:21;;;;;;;17.70;12.00;;;2.50;1.00;;;;;;5075101;28;20401;-78
2024/01/28 08:54:47;;;;;;;20.70;12.13;;;2.60;1.00;;;;;;5074065;28;20542;-68
2024/01/28 08:57:13;;;;;;;22.10;13.87;;;2.60;1.00;;;;;;5057454;28;20499;-71
2024/01/28 08:59:39;;;;;;;27.20;13.57;;;2.60;1.00;;;;;;5074978;28;20573;-78
2024/01/28 09:02:04;;;;;;;27.50;12.50;;;2.60;1.00;;;;;;5075002;28;20881;-77
2024/01/28 09:04:30;;;;;;;24.10;12.70;;;2.70;1.00;;;;;;5056003;28;20190;-76
2024/01/28 09:06:56;;;;;;;19.00;12.40;;;2.60;1.00;;;;;;5074596;28;20194;-68
2024/01/28 09:09:22;;;;;;;27.37;14.00;;;2.70;1.00;;;;;;5074790;28;20401;-77
2024/01/28 09:11:48;;;;;;;18.57;11.30;;;2.80;1.00;;;;;;5056996;28;20799;-78
2024/01/28 09:14:14;;;;;;;22.27;12.07;;;2.80;1.00;;;;;;5073780;28;20229;-69
2024/01/28 09:16:39;;;;;;;19.10;12.17;;;2.90;1.00;;;;;;5074563;28;20174;-70
2024/01/28 09:19:05;;;;;;;17.47;11.37;;;2.90;1.00;;;;;;5056714;28;20905;-68
2024/01/28 09:21:31;;;;;;;22.60;11.33;;;3.00;1.00;;;;;;5074312;28;20192;-69
2024/01/28 09:23:58;;;;;;;23.40;12.00;;;3.10;1.00;;;;;;5073073;28;20858;-69
2024/01/28 09:26:24;;;;;;;20.30;11.17;;;3.10;1.00;;;;;;5074449;28;20448;-69
2024/01/28 09:28:49;;;;;;;21.57;11.20;;;3.10;1.00;;;;;;5074393;28;20404;-76
2024/01/28 09:31:15;;;;;;;22.43;11.00;;;3.20;1.00;;;;;;5074418;28;20822;-69
2024/01/28 09:33:42;;;;;;;23.33;10.10;;;3.20;1.00;;;;;;5073555;28;20175;-76
2024/01/28 09:36:08;;;;;;;16.73;10.30;;;3.30;1.00;;;;;;5074266;28;20193;-77
2024/01/28 09:38:34;;;;;;;18.23;10.50;;;3.40;1.00;;;;;;5074318;28;20401;-68
2024/01/28 09:41:29;;;;;;;23.43;11.93;;;3.40;1.00;;;;;;5074064;28;20412;-69
2024/01/28 09:43:55;;;;;;;16.20;9.80;;;3.50;1.00;;;;;;5073282;28;20167;-69
2024/01/28 09:46:21;;;;;;;23.60;10.00;;;3.60;1.00;;;;;;5056074;28;20549;-69
2024/01/28 09:48:50;;;;;;;15.60;10.13;;;3.70;1.00;;;;;;5073592;28;20175;-77
2024/01/28 09:51:18;;;;;;;17.80;9.37;;;3.80;1.00;;;;;;5056056;28;20473;-68
2024/01/28 09:53:43;;;;;;;19.20;11.83;;;3.90;1.00;;;;;;5072975;28;20407;-69
2024/01/28 09:56:13;;;;;;;19.43;8.67;;;4.00;1.00;;;;;;5073770;28;20449;-68
2024/01/28 09:58:40;;;;;;;23.10;13.47;;;4.10;1.00;;;;;;5073851;28;20211;-68
2024/01/28 10:01:07;;;;;;;19.13;8.27;;;4.10;1.00;;;;;;5073681;28;20399;-68
2024/01/28 10:03:34;;;;;;;15.37;9.87;;;4.20;1.00;;;;;;5072790;28;20465;-68
2024/01/28 10:05:59;;;;;;;16.13;9.40;;;4.30;1.00;;;;;;5055312;28;20463;-69
2024/01/28 10:08:27;;;;;;;14.37;8.50;;;4.40;1.00;;;;;;5056021;28;20914;-68
2024/01/28 10:10:55;;;;;;;13.37;9.10;;;4.60;1.00;;;;;;5073645;28;20575;-77
2024/01/28 10:13:21;;;;;;;14.53;8.70;;;4.60;99.90;;;;;;5054709;28;20454;-77
2024/01/28 10:15:57;;;;;;;17.17;9.43;;;4.70;99.90;;;;;;5073525;28;20432;-76
2024/01/28 10:18:26;;;;;;;10.90;7.47;;;4.80;99.90;;;;;;5073496;28;20407;-77
2024/01/28 10:20:52;;;;;;;14.63;7.60;;;4.80;99.90;;;;;;5073466;28;20406;-77
2024/01/28 10:23:18;;;;;;;20.30;9.03;;;4.80;99.90;;;;;;5054654;28;20427;-77
2024/01/28 10:25:45;;;;;;;18.73;8.40;;;4.80;99.90;;;;;;5073231;28;20454;-76
2024/01/28 10:28:10;;;;;;;14.00;7.50;;;4.90;99.90;;;;;;5073424;28;20471;-68
2024/01/28 10:30:36;;;;;;;12.13;8.60;;;4.90;99.90;;;;;;5073488;28;20404;-69
2024/01/28 10:33:02;;;;;;;13.90;7.40;;;5.00;99.90;;;;;;5072465;28;20462;-77
2024/01/28 10:35:28;;;;;;;19.43;8.20;;;5.10;99.90;;;;;;5055218;28;20685;-69
2024/01/28 10:37:56;;;;;;;13.93;7.80;;;5.20;99.90;;;;;;5073405;28;20166;-77
2024/01/28 10:40:29;;;;;;;13.50;6.27;;;5.10;99.90;;;;;;5073312;28;20194;-68
2024/01/28 10:42:56;;;;;;;15.90;8.20;;;5.30;99.90;;;;;;5072362;28;20396;-77
2024/01/28 10:45:24;;;;;;;9.80;6.50;;;5.30;99.90;;;;;;5073012;28;20809;-70
2024/01/28 10:47:55;;;;;;;17.83;7.90;;;5.30;99.90;;;;;;5073228;28;20903;-75
2024/01/28 10:50:24;;;;;;;11.53;7.10;;;5.30;99.90;;;;;;5073265;28;20488;-68
2024/01/28 10:52:51;;;;;;;11.77;6.43;;;5.40;99.90;;;;;;5072312;28;20392;-75
2024/01/28 10:55:20;;;;;;;11.37;6.43;;;5.50;99.90;;;;;;5055297;28;20485;-75
2024/01/28 10:57:47;;;;;;;23.13;6.70;;;5.60;99.90;;;;;;5073088;28;20910;-75
2024/01/28 11:00:17;;;;;;;14.83;7.43;;;5.70;99.90;;;;;;5073174;28;20396;-74
2024/01/28 11:02:43;;;;;;;16.87;6.40;;;5.80;99.90;;;;;;5073036;28;20408;-69
2024/01/28 11:05:11;;;;;;;10.60;6.60;;;5.90;99.90;;;;;;5072113;28;20452;-72
2024/01/28 11:07:37;;;;;;;9.13;5.90;;;6.00;99.90;;;;;;5072972;28;20393;-74
2024/01/28 11:10:05;;;;;;;10.43;5.40;;;6.10;99.90;;;;;;5073023;28;20934;-76
2024/01/28 11:12:32;;;;;;;13.07;5.47;;;6.10;99.90;;;;;;5072978;28;20245;-76
2024/01/28 11:14:59;;;;;;;12.00;5.33;;;6.20;99.90;;;;;;5072097;28;20391;-68
2024/01/28 11:17:34;;;;;;;8.70;5.60;;;6.30;99.90;;;;;;5072773;28;20405;-76
2024/01/28 11:20:07;;;;;;;14.10;5.60;;;6.40;99.90;;;;;;5072696;28;20397;-76
2024/01/28 11:22:51;;;;;;;9.03;5.03;;;6.60;99.90;;;;;;5072933;28;20388;-67
2024/01/28 11:25:22;;;;;;;11.43;5.60;;;6.70;99.90;;;;;;5072884;28;20447;-68
2024/01/28 11:27:57;;;;;;;9.33;5.33;;;6.80;99.90;;;;;;5072870;28;20386;-71
2024/01/28 11:30:23;;;;;;;10.63;4.63;;;6.70;99.90;;;;;;5055164;28;20431;-68
2024/01/28 11:32:52;;;;;;;6.40;5.00;;;6.70;99.90;;;;;;5072042;28;20393;-74
2024/01/28 11:35:18;;;;;;;8.40;5.97;;;6.70;99.90;;;;;;5072696;28;20420;-75
2024/01/28 11:37:57;;;;;;;8.20;5.70;;;6.70;99.90;;;;;;5072728;28;20957;-68
2024/01/28 11:40:32;;;;;;;6.50;4.40;;;6.80;99.90;;;;;;5072816;28;20408;-76
2024/01/28 11:42:58;;;;;;;16.53;6.07;;;6.90;99.90;;;;;;5071885;28;20427;-76
2024/01/28 11:45:27;;;;;;;7.70;5.60;;;6.90;91.30;;;;;;5055465;28;20805;-68
2024/01/28 11:47:53;;;;;;;10.73;4.60;;;7.00;91.40;;;;;;5076372;28;20400;-68
2024/01/28 11:50:18;;;;;;;8.40;4.63;;;7.20;91.40;;;;;;5076274;28;20378;-76
2024/01/28 11:52:44;;;;;;;7.10;4.90;;;7.30;91.50;;;;;;5076049;28;20170;-75
2024/01/28 11:55:14;;;;;;;9.50;4.40;;;7.40;91.50;;;;;;5075437;28;20186;-76
2024/01/28 11:57:42;;;;;;;7.70;4.97;;;7.30;77.60;;;;;;5076208;28;20169;-68
2024/01/28 12:00:10;;;;;;;12.67;4.57;;;7.30;65.50;;;;;;5058184;28;20944;-68
2024/01/28 12:02:37;;;;;;;6.83;4.73;;;7.20;51.40;;;;;;5076162;28;20888;-76
2024/01/28 12:05:03;;;;;;;7.80;4.60;;;7.10;33.90;;;;;;5075075;28;20466;-67
2024/01/28 12:07:33;;;;;;;9.33;5.03;;;7.10;28.20;;;;;;5076009;28;20427;-69
2024/01/28 12:10:00;;;;;;;12.93;5.07;;;7.10;23.50;;;;;;5058284;28;20417;-68
2024/01/28 12:12:27;;;;;;;13.17;4.93;;;7.20;22.70;;;;;;5075860;28;20401;-76
2024/01/28 12:14:53;;;;;;;14.83;4.50;;;7.20;18.70;;;;;;5075003;28;20812;-69
2024/01/28 12:17:19;;;;;;;7.80;5.00;;;7.20;10.00;;;;;;5075889;28;20411;-76
2024/01/28 12:19:44;;;;;;;7.13;4.57;;;7.20;1.00;;;;;;5075851;28;20171;-76
2024/01/28 12:22:11;;;;;;;11.10;5.80;;;7.30;1.00;;;;;;5075751;28;20542;-75
2024/01/28 12:24:43;;;;;;;16.50;5.27;;;7.30;1.00;;;;;;5074776;28;20188;-69
2024/01/28 12:27:09;;;;;;;9.57;4.57;;;7.40;1.00;;;;;;5075622;28;20471;-75
2024/01/28 12:29:35;;;;;;;5.67;4.90;;;7.40;1.00;;;;;;5057716;28;20375;-76
2024/01/28 12:32:01;;;;;;;9.30;4.67;;;7.50;1.00;;;;;;5075651;28;20163;-75
2024/01/28 12:34:26;;;;;;;8.80;5.10;;;7.50;1.00;;;;;;5074571;28;20209;-75
2024/01/28 12:36:52;;;;;;;12.67;4.50;;;7.50;1.00;;;;;;5057623;28;20205;-68
2024/01/28 12:39:18;;;;;;;14.97;4.30;;;7.50;1.00;;;;;;5057720;28;20416;-68
2024/01/28 12:41:44;;;;;;;4.57;4.13;;;7.50;1.00;;;;;;5075480;28;20519;-75
2024/01/28 12:44:09;;;;;;;5.00;3.67;;;7.50;1.00;;;;;;5074450;28;20244;-68